sensor_id;sensor_type;location;lat;lon;timestamp;temperature;humidity
37274;DHT22;23161;51.250;5.554;2022-11-15T00:01:54;8.60;99.90
37274;DHT22;23161;51.250;5.554;2022-11-15T00:04:38;8.60;99.90
37274;DHT22;23161;51.250;5.554;2022-11-15T00:07:22;8.60;99.90
37274;DHT22;23161;51.250;5.554;2022-11-15T00:10:07;8.60;99.90
37274;DHT22;23161;51.250;5.554;2022-11-15T00:12:51;8.70;99.90
37274;DHT22;23161;51.250;5.554;2022-11-15T00:15:38;8.60;99.90
37274;DHT22;23161;51.250;5.554;2022-11-15T00:18:22;8.60;99.90
37274;DHT22;23161;51.250;5.554;2022-11-15T00:21:09;8.70;99.90
37274;DHT22;23161;51.250;5.554;2022-11-15T00:23:53;8.80;99.90
37274;DHT22;23161;51.250;5.554;2022-11-15T00:26:38;8.70;99.90
37274;DHT22;23161;51.250;5.554;2022-11-15T00:29:22;8.80;99.90
37274;DHT22;23161;51.250;5.554;2022-11-15T00:32:06;8.80;99.90
37274;DHT22;23161;51.250;5.554;2022-11-15T00:34:51;8.80;99.90
37274;DHT22;23161;51.250;5.554;2022-11-15T00:37:35;8.90;99.90
37274;DHT22;23161;51.250;5.554;2022-11-15T00:40:19;8.90;99.90
37274;DHT22;23161;51.250;5.554;2022-11-15T00:43:03;9.00;99.90
37274;DHT22;23161;51.250;5.554;2022-11-15T00:45:47;9.20;99.90
37274;DHT22;23161;51.250;5.554;2022-11-15T00:48:31;9.30;99.90
37274;DHT22;23161;51.250;5.554;2022-11-15T00:51:16;9.50;99.90
37274;DHT22;23161;51.250;5.554;2022-11-15T00:54:01;9.60;99.90
37274;DHT22;23161;51.250;5.554;2022-11-15T00:56:46;9.90;99.90
37274;DHT22;23161;51.250;5.554;2022-11-15T00:59:30;10.10;99.90
37274;DHT22;23161;51.250;5.554;2022-11-15T01:02:15;10.30;99.90
37274;DHT22;23161;51.250;5.554;2022-11-15T01:04:59;10.30;99.90
37274;DHT22;23161;51.250;5.554;2022-11-15T01:07:44;10.40;99.90
37274;DHT22;23161;51.250;5.554;2022-11-15T01:10:29;10.50;99.90
37274;DHT22;23161;51.250;5.554;2022-11-15T01:13:13;10.60;99.90
37274;DHT22;23161;51.250;5.554;2022-11-15T01:15:58;10.70;99.90
37274;DHT22;23161;51.250;5.554;2022-11-15T01:18:44;10.60;99.90
37274;DHT22;23161;51.250;5.554;2022-11-15T01:21:28;10.70;99.90
37274;DHT22;23161;51.250;5.554;2022-11-15T01:24:12;10.80;99.90
37274;DHT22;23161;51.250;5.554;2022-11-15T01:26:57;10.80;99.90
37274;DHT22;23161;51.250;5.554;2022-11-15T01:29:41;10.80;99.90
37274;DHT22;23161;51.250;5.554;2022-11-15T01:32:25;10.90;99.90
37274;DHT22;23161;51.250;5.554;2022-11-15T01:35:10;10.90;99.90
37274;DHT22;23161;51.250;5.554;2022-11-15T01:37:54;10.80;99.90
37274;DHT22;23161;51.250;5.554;2022-11-15T01:40:38;10.90;99.90
37274;DHT22;23161;51.250;5.554;2022-11-15T01:43:28;10.90;99.90
37274;DHT22;23161;51.250;5.554;2022-11-15T01:46:30;11.00;99.90
37274;DHT22;23161;51.250;5.554;2022-11-15T01:49:21;11.00;99.90
37274;DHT22;23161;51.250;5.554;2022-11-15T01:52:13;11.00;99.90
37274;DHT22;23161;51.250;5.554;2022-11-15T01:57:48;11.10;99.90
37274;DHT22;23161;51.250;5.554;2022-11-15T02:00:34;11.20;99.90
37274;DHT22;23161;51.250;5.554;2022-11-15T02:03:20;11.20;99.90
37274;DHT22;23161;51.250;5.554;2022-11-15T02:06:06;11.20;99.90
37274;DHT22;23161;51.250;5.554;2022-11-15T02:08:51;11.20;99.90
37274;DHT22;23161;51.250;5.554;2022-11-15T02:11:35;11.20;99.90
37274;DHT22;23161;51.250;5.554;2022-11-15T02:14:21;11.20;99.90
37274;DHT22;23161;51.250;5.554;2022-11-15T02:17:33;11.30;99.90
37274;DHT22;23161;51.250;5.554;2022-11-15T02:23:56;11.30;99.90
37274;DHT22;23161;51.250;5.554;2022-11-15T02:33:00;11.40;99.90
37274;DHT22;23161;51.250;5.554;2022-11-15T02:35:58;11.40;99.90
37274;DHT22;23161;51.250;5.554;2022-11-15T02:38:52;11.40;99.90
37274;DHT22;23161;51.250;5.554;2022-11-15T02:41:45;11.40;99.90
37274;DHT22;23161;51.250;5.554;2022-11-15T02:44:43;11.40;99.90
37274;DHT22;23161;51.250;5.554;2022-11-15T02:47:30;11.50;99.90
37274;DHT22;23161;51.250;5.554;2022-11-15T02:50:18;11.50;99.90
37274;DHT22;23161;51.250;5.554;2022-11-15T02:53:04;11.50;99.90
37274;DHT22;23161;51.250;5.554;2022-11-15T02:55:50;11.60;99.90
37274;DHT22;23161;51.250;5.554;2022-11-15T03:04:53;11.70;99.90
37274;DHT22;23161;51.250;5.554;2022-11-15T03:07:44;11.70;99.90
37274;DHT22;23161;51.250;5.554;2022-11-15T03:10:42;11.60;99.90
37274;DHT22;23161;51.250;5.554;2022-11-15T03:13:37;11.60;99.90
37274;DHT22;23161;51.250;5.554;2022-11-15T03:16:47;11.70;99.90
37274;DHT22;23161;51.250;5.554;2022-11-15T03:19:44;11.70;99.90
37274;DHT22;23161;51.250;5.554;2022-11-15T03:22:35;11.70;99.90
37274;DHT22;23161;51.250;5.554;2022-11-15T03:25:24;11.70;99.90
37274;DHT22;23161;51.250;5.554;2022-11-15T03:28:13;11.70;99.90
37274;DHT22;23161;51.250;5.554;2022-11-15T03:31:01;11.70;99.90
37274;DHT22;23161;51.250;5.554;2022-11-15T03:34:09;11.70;99.90
37274;DHT22;23161;51.250;5.554;2022-11-15T03:36:55;11.70;99.90
37274;DHT22;23161;51.250;5.554;2022-11-15T03:39:40;11.70;99.90
37274;DHT22;23161;51.250;5.554;2022-11-15T03:42:31;11.70;99.90
37274;DHT22;23161;51.250;5.554;2022-11-15T03:45:31;11.70;99.90
37274;DHT22;23161;51.250;5.554;2022-11-15T03:48:25;11.70;99.90
37274;DHT22;23161;51.250;5.554;2022-11-15T03:51:11;11.70;99.90
37274;DHT22;23161;51.250;5.554;2022-11-15T03:53:55;11.70;99.90
37274;DHT22;23161;51.250;5.554;2022-11-15T03:56:39;11.70;99.90
37274;DHT22;23161;51.250;5.554;2022-11-15T03:59:23;11.70;99.90
37274;DHT22;23161;51.250;5.554;2022-11-15T04:02:07;11.70;99.90
37274;DHT22;23161;51.250;5.554;2022-11-15T04:04:51;11.70;99.90
37274;DHT22;23161;51.250;5.554;2022-11-15T04:07:36;11.70;99.90
37274;DHT22;23161;51.250;5.554;2022-11-15T04:10:20;11.70;99.90
37274;DHT22;23161;51.250;5.554;2022-11-15T04:13:05;11.70;99.90
37274;DHT22;23161;51.250;5.554;2022-11-15T04:15:49;11.70;99.90
37274;DHT22;23161;51.250;5.554;2022-11-15T04:18:33;11.70;99.90
37274;DHT22;23161;51.250;5.554;2022-11-15T04:21:17;11.70;99.90
37274;DHT22;23161;51.250;5.554;2022-11-15T04:24:20;11.60;99.90
37274;DHT22;23161;51.250;5.554;2022-11-15T04:27:04;11.60;99.90
37274;DHT22;23161;51.250;5.554;2022-11-15T04:29:49;11.60;99.90
37274;DHT22;23161;51.250;5.554;2022-11-15T04:32:33;11.60;99.90
37274;DHT22;23161;51.250;5.554;2022-11-15T04:35:17;11.50;99.90
37274;DHT22;23161;51.250;5.554;2022-11-15T04:38:03;11.50;99.90
37274;DHT22;23161;51.250;5.554;2022-11-15T04:40:48;11.50;99.90
37274;DHT22;23161;51.250;5.554;2022-11-15T04:43:32;11.40;99.90
37274;DHT22;23161;51.250;5.554;2022-11-15T04:46:16;11.50;99.90
37274;DHT22;23161;51.250;5.554;2022-11-15T04:49:01;11.40;99.90
37274;DHT22;23161;51.250;5.554;2022-11-15T04:51:46;11.40;99.90
37274;DHT22;23161;51.250;5.554;2022-11-15T04:54:31;11.40;99.90
37274;DHT22;23161;51.250;5.554;2022-11-15T04:57:15;11.40;99.90
37274;DHT22;23161;51.250;5.554;2022-11-15T05:00:00;11.40;99.90
37274;DHT22;23161;51.250;5.554;2022-11-15T05:02:44;11.40;99.90
37274;DHT22;23161;51.250;5.554;2022-11-15T05:05:47;11.40;99.90
37274;DHT22;23161;51.250;5.554;2022-11-15T05:08:31;11.40;99.90
37274;DHT22;23161;51.250;5.554;2022-11-15T05:11:16;11.40;99.90
37274;DHT22;23161;51.250;5.554;2022-11-15T05:14:00;11.30;99.90
37274;DHT22;23161;51.250;5.554;2022-11-15T05:16:44;11.30;99.90
37274;DHT22;23161;51.250;5.554;2022-11-15T05:19:29;11.30;99.90
37274;DHT22;23161;51.250;5.554;2022-11-15T05:22:13;11.30;99.90
37274;DHT22;23161;51.250;5.554;2022-11-15T05:24:57;11.30;99.90
37274;DHT22;23161;51.250;5.554;2022-11-15T05:27:41;11.30;99.90
37274;DHT22;23161;51.250;5.554;2022-11-15T05:30:25;11.30;99.90
37274;DHT22;23161;51.250;5.554;2022-11-15T05:33:11;11.30;99.90
37274;DHT22;23161;51.250;5.554;2022-11-15T05:36:04;11.30;99.90
37274;DHT22;23161;51.250;5.554;2022-11-15T05:38:49;11.30;99.90
37274;DHT22;23161;51.250;5.554;2022-11-15T05:41:39;11.20;99.90
37274;DHT22;23161;51.250;5.554;2022-11-15T05:44:24;11.30;99.90
37274;DHT22;23161;51.250;5.554;2022-11-15T05:47:12;11.20;99.90
37274;DHT22;23161;51.250;5.554;2022-11-15T05:49:58;11.10;99.90
37274;DHT22;23161;51.250;5.554;2022-11-15T05:52:43;11.20;99.90
37274;DHT22;23161;51.250;5.554;2022-11-15T05:55:29;11.10;99.90
37274;DHT22;23161;51.250;5.554;2022-11-15T05:58:13;11.10;99.90
37274;DHT22;23161;51.250;5.554;2022-11-15T06:00:59;11.00;99.90
37274;DHT22;23161;51.250;5.554;2022-11-15T06:03:44;11.00;99.90
37274;DHT22;23161;51.250;5.554;2022-11-15T06:06:29;11.00;99.90
37274;DHT22;23161;51.250;5.554;2022-11-15T06:09:13;11.00;99.90
37274;DHT22;23161;51.250;5.554;2022-11-15T06:11:58;11.00;99.90
37274;DHT22;23161;51.250;5.554;2022-11-15T06:14:42;10.90;99.90
37274;DHT22;23161;51.250;5.554;2022-11-15T06:17:27;10.90;99.90
37274;DHT22;23161;51.250;5.554;2022-11-15T06:20:12;10.90;99.90
37274;DHT22;23161;51.250;5.554;2022-11-15T06:22:59;10.80;99.90
37274;DHT22;23161;51.250;5.554;2022-11-15T06:25:43;10.80;99.90
37274;DHT22;23161;51.250;5.554;2022-11-15T06:28:32;10.70;99.90
37274;DHT22;23161;51.250;5.554;2022-11-15T06:31:17;10.70;99.90
37274;DHT22;23161;51.250;5.554;2022-11-15T06:34:01;10.70;99.90
37274;DHT22;23161;51.250;5.554;2022-11-15T06:36:46;10.60;99.90
37274;DHT22;23161;51.250;5.554;2022-11-15T06:39:31;10.60;99.90
37274;DHT22;23161;51.250;5.554;2022-11-15T06:42:15;10.60;99.90
37274;DHT22;23161;51.250;5.554;2022-11-15T06:44:59;10.60;99.90
37274;DHT22;23161;51.250;5.554;2022-11-15T06:47:47;10.60;99.90
37274;DHT22;23161;51.250;5.554;2022-11-15T06:50:32;10.60;99.90
37274;DHT22;23161;51.250;5.554;2022-11-15T06:53:16;10.60;99.90
37274;DHT22;23161;51.250;5.554;2022-11-15T06:56:05;10.60;99.90
37274;DHT22;23161;51.250;5.554;2022-11-15T06:58:50;10.50;99.90
37274;DHT22;23161;51.250;5.554;2022-11-15T07:01:34;10.50;99.90
37274;DHT22;23161;51.250;5.554;2022-11-15T07:04:18;10.50;99.90
37274;DHT22;23161;51.250;5.554;2022-11-15T07:07:03;10.50;99.90
37274;DHT22;23161;51.250;5.554;2022-11-15T07:09:47;10.50;99.90
37274;DHT22;23161;51.250;5.554;2022-11-15T07:12:31;10.50;99.90
37274;DHT22;23161;51.250;5.554;2022-11-15T07:15:17;10.50;99.90
37274;DHT22;23161;51.250;5.554;2022-11-15T07:18:02;10.50;99.90
37274;DHT22;23161;51.250;5.554;2022-11-15T07:20:46;10.50;99.90
37274;DHT22;23161;51.250;5.554;2022-11-15T07:23:31;10.50;99.90
37274;DHT22;23161;51.250;5.554;2022-11-15T07:26:15;10.50;99.90
37274;DHT22;23161;51.250;5.554;2022-11-15T07:29:00;10.50;99.90
37274;DHT22;23161;51.250;5.554;2022-11-15T07:31:45;10.50;99.90
37274;DHT22;23161;51.250;5.554;2022-11-15T07:34:30;10.50;99.90
37274;DHT22;23161;51.250;5.554;2022-11-15T07:37:14;10.50;99.90
37274;DHT22;23161;51.250;5.554;2022-11-15T07:39:59;10.50;99.90
37274;DHT22;23161;51.250;5.554;2022-11-15T07:42:43;10.50;99.90
37274;DHT22;23161;51.250;5.554;2022-11-15T07:45:43;10.50;99.90
37274;DHT22;23161;51.250;5.554;2022-11-15T07:48:28;10.50;99.90
37274;DHT22;23161;51.250;5.554;2022-11-15T07:51:13;10.40;99.90
37274;DHT22;23161;51.250;5.554;2022-11-15T07:54:00;10.40;99.90
37274;DHT22;23161;51.250;5.554;2022-11-15T07:56:59;10.50;99.90
37274;DHT22;23161;51.250;5.554;2022-11-15T07:59:43;10.60;99.90
37274;DHT22;23161;51.250;5.554;2022-11-15T08:02:27;10.50;99.90
37274;DHT22;23161;51.250;5.554;2022-11-15T08:05:11;10.60;99.90
37274;DHT22;23161;51.250;5.554;2022-11-15T08:07:56;10.50;99.90
37274;DHT22;23161;51.250;5.554;2022-11-15T08:10:40;10.80;99.90
37274;DHT22;23161;51.250;5.554;2022-11-15T08:13:25;11.40;99.90
37274;DHT22;23161;51.250;5.554;2022-11-15T08:16:09;11.70;99.90
37274;DHT22;23161;51.250;5.554;2022-11-15T08:18:56;11.60;99.90
37274;DHT22;23161;51.250;5.554;2022-11-15T08:21:40;11.60;99.90
37274;DHT22;23161;51.250;5.554;2022-11-15T08:24:24;11.60;99.90
37274;DHT22;23161;51.250;5.554;2022-11-15T08:27:08;11.60;99.90
37274;DHT22;23161;51.250;5.554;2022-11-15T08:29:58;11.50;99.90
37274;DHT22;23161;51.250;5.554;2022-11-15T08:32:43;11.90;99.90
37274;DHT22;23161;51.250;5.554;2022-11-15T08:35:28;12.60;99.90
37274;DHT22;23161;51.250;5.554;2022-11-15T08:38:12;14.70;99.90
37274;DHT22;23161;51.250;5.554;2022-11-15T08:41:02;14.50;99.90
37274;DHT22;23161;51.250;5.554;2022-11-15T08:43:47;14.80;99.90
37274;DHT22;23161;51.250;5.554;2022-11-15T08:46:31;15.60;99.90
37274;DHT22;23161;51.250;5.554;2022-11-15T08:49:17;16.30;99.90
37274;DHT22;23161;51.250;5.554;2022-11-15T08:52:02;15.60;99.90
37274;DHT22;23161;51.250;5.554;2022-11-15T08:54:46;15.50;99.90
37274;DHT22;23161;51.250;5.554;2022-11-15T08:57:31;15.00;99.90
37274;DHT22;23161;51.250;5.554;2022-11-15T09:00:16;15.10;99.90
37274;DHT22;23161;51.250;5.554;2022-11-15T09:03:06;14.90;99.90
37274;DHT22;23161;51.250;5.554;2022-11-15T09:05:57;14.90;99.90
37274;DHT22;23161;51.250;5.554;2022-11-15T09:08:42;14.60;99.90
37274;DHT22;23161;51.250;5.554;2022-11-15T09:11:26;15.50;99.90
37274;DHT22;23161;51.250;5.554;2022-11-15T09:14:14;16.30;99.90
37274;DHT22;23161;51.250;5.554;2022-11-15T09:16:59;16.90;99.90
37274;DHT22;23161;51.250;5.554;2022-11-15T09:19:43;17.00;99.90
37274;DHT22;23161;51.250;5.554;2022-11-15T09:22:27;18.90;99.90
37274;DHT22;23161;51.250;5.554;2022-11-15T09:25:12;20.10;99.90
37274;DHT22;23161;51.250;5.554;2022-11-15T09:27:56;18.70;99.90
37274;DHT22;23161;51.250;5.554;2022-11-15T09:30:41;18.80;99.90
37274;DHT22;23161;51.250;5.554;2022-11-15T09:33:25;19.70;99.90
37274;DHT22;23161;51.250;5.554;2022-11-15T09:36:10;19.30;99.90
37274;DHT22;23161;51.250;5.554;2022-11-15T09:38:55;19.30;99.90
37274;DHT22;23161;51.250;5.554;2022-11-15T09:41:51;18.70;99.90
37274;DHT22;23161;51.250;5.554;2022-11-15T09:51:18;16.50;99.90
37274;DHT22;23161;51.250;5.554;2022-11-15T09:53:57;16.70;99.90
37274;DHT22;23161;51.250;5.554;2022-11-15T09:56:30;16.40;99.90
37274;DHT22;23161;51.250;5.554;2022-11-15T10:01:35;16.60;99.90
37274;DHT22;23161;51.250;5.554;2022-11-15T10:04:02;16.50;99.90
37274;DHT22;23161;51.250;5.554;2022-11-15T10:06:28;15.60;99.90
37274;DHT22;23161;51.250;5.554;2022-11-15T10:09:23;15.60;99.90
37274;DHT22;23161;51.250;5.554;2022-11-15T10:11:45;15.90;99.90
37274;DHT22;23161;51.250;5.554;2022-11-15T10:14:18;15.70;99.90
37274;DHT22;23161;51.250;5.554;2022-11-15T10:24:40;14.70;99.90
37274;DHT22;23161;51.250;5.554;2022-11-15T10:27:12;14.40;99.90
37274;DHT22;23161;51.250;5.554;2022-11-15T10:29:49;14.00;99.90
37274;DHT22;23161;51.250;5.554;2022-11-15T10:32:18;13.40;99.90
37274;DHT22;23161;51.250;5.554;2022-11-15T10:34:44;13.10;99.90
37274;DHT22;23161;51.250;5.554;2022-11-15T10:37:10;13.70;99.90
37274;DHT22;23161;51.250;5.554;2022-11-15T10:39:36;14.10;99.90
37274;DHT22;23161;51.250;5.554;2022-11-15T10:42:28;14.30;99.90
37274;DHT22;23161;51.250;5.554;2022-11-15T10:44:54;14.40;99.90
37274;DHT22;23161;51.250;5.554;2022-11-15T10:47:31;14.70;99.90
37274;DHT22;23161;51.250;5.554;2022-11-15T10:50:26;15.30;99.90
37274;DHT22;23161;51.250;5.554;2022-11-15T10:52:52;15.50;99.90
37274;DHT22;23161;51.250;5.554;2022-11-15T10:55:27;15.70;99.90
37274;DHT22;23161;51.250;5.554;2022-11-15T10:58:00;15.70;99.90
37274;DHT22;23161;51.250;5.554;2022-11-15T11:00:34;15.80;99.90
37274;DHT22;23161;51.250;5.554;2022-11-15T11:05:37;16.00;99.90
37274;DHT22;23161;51.250;5.554;2022-11-15T11:10:56;15.90;99.90
37274;DHT22;23161;51.250;5.554;2022-11-15T11:13:27;15.30;99.90
37274;DHT22;23161;51.250;5.554;2022-11-15T11:21:30;15.00;99.90
37274;DHT22;23161;51.250;5.554;2022-11-15T11:24:11;14.80;99.90
37274;DHT22;23161;51.250;5.554;2022-11-15T11:26:57;14.70;99.90
37274;DHT22;23161;51.250;5.554;2022-11-15T11:32:23;14.60;99.90
37274;DHT22;23161;51.250;5.554;2022-11-15T11:40:39;14.20;99.90
37274;DHT22;23161;51.250;5.554;2022-11-15T11:51:13;13.50;99.90
37274;DHT22;23161;51.250;5.554;2022-11-15T11:53:57;13.60;99.90
37274;DHT22;23161;51.250;5.554;2022-11-15T11:56:29;13.80;99.90
37274;DHT22;23161;51.250;5.554;2022-11-15T11:59:09;13.70;99.90
37274;DHT22;23161;51.250;5.554;2022-11-15T12:01:41;13.80;99.90
37274;DHT22;23161;51.250;5.554;2022-11-15T12:07:13;13.80;99.90
37274;DHT22;23161;51.250;5.554;2022-11-15T12:10:11;13.80;99.90
37274;DHT22;23161;51.250;5.554;2022-11-15T12:13:24;14.00;99.90
37274;DHT22;23161;51.250;5.554;2022-11-15T12:16:18;13.90;99.90
37274;DHT22;23161;51.250;5.554;2022-11-15T12:18:51;14.10;99.90
37274;DHT22;23161;51.250;5.554;2022-11-15T12:24:20;14.50;99.90
37274;DHT22;23161;51.250;5.554;2022-11-15T12:26:55;14.40;99.90
37274;DHT22;23161;51.250;5.554;2022-11-15T12:29:28;14.30;99.90
37274;DHT22;23161;51.250;5.554;2022-11-15T12:31:57;14.30;99.90
37274;DHT22;23161;51.250;5.554;2022-11-15T12:36:54;14.00;99.90
37274;DHT22;23161;51.250;5.554;2022-11-15T12:39:20;13.70;99.90
37274;DHT22;23161;51.250;5.554;2022-11-15T12:47:23;13.50;99.90
37274;DHT22;23161;51.250;5.554;2022-11-15T12:49:50;13.40;99.90
37274;DHT22;23161;51.250;5.554;2022-11-15T12:52:16;13.40;99.90
37274;DHT22;23161;51.250;5.554;2022-11-15T13:00:16;13.40;99.90
37274;DHT22;23161;51.250;5.554;2022-11-15T13:02:44;13.50;99.90
37274;DHT22;23161;51.250;5.554;2022-11-15T13:15:45;13.40;99.90
37274;DHT22;23161;51.250;5.554;2022-11-15T13:18:30;13.40;99.90
37274;DHT22;23161;51.250;5.554;2022-11-15T13:20:57;13.40;99.90
37274;DHT22;23161;51.250;5.554;2022-11-15T13:23:23;13.40;99.90
37274;DHT22;23161;51.250;5.554;2022-11-15T13:26:14;13.40;99.90
37274;DHT22;23161;51.250;5.554;2022-11-15T13:28:48;13.30;99.90
37274;DHT22;23161;51.250;5.554;2022-11-15T13:31:37;13.30;99.90
37274;DHT22;23161;51.250;5.554;2022-11-15T13:34:28;13.30;99.90
37274;DHT22;23161;51.250;5.554;2022-11-15T13:36:54;13.20;99.90
37274;DHT22;23161;51.250;5.554;2022-11-15T13:39:28;13.30;99.90
37274;DHT22;23161;51.250;5.554;2022-11-15T13:41:55;13.30;99.90
37274;DHT22;23161;51.250;5.554;2022-11-15T13:44:29;13.20;99.90
37274;DHT22;23161;51.250;5.554;2022-11-15T13:47:18;13.20;99.90
37274;DHT22;23161;51.250;5.554;2022-11-15T13:49:44;13.10;99.90
37274;DHT22;23161;51.250;5.554;2022-11-15T13:52:14;13.10;99.90
37274;DHT22;23161;51.250;5.554;2022-11-15T13:54:58;13.00;99.90
37274;DHT22;23161;51.250;5.554;2022-11-15T13:58:09;13.00;99.90
37274;DHT22;23161;51.250;5.554;2022-11-15T14:03:25;13.00;99.90
37274;DHT22;23161;51.250;5.554;2022-11-15T14:08:29;13.00;99.90
37274;DHT22;23161;51.250;5.554;2022-11-15T14:11:17;12.90;99.90
37274;DHT22;23161;51.250;5.554;2022-11-15T14:16:45;12.90;99.90
37274;DHT22;23161;51.250;5.554;2022-11-15T14:19:33;12.90;99.90
37274;DHT22;23161;51.250;5.554;2022-11-15T14:22:19;12.90;99.90
37274;DHT22;23161;51.250;5.554;2022-11-15T14:27:39;13.00;99.90
37274;DHT22;23161;51.250;5.554;2022-11-15T14:30:05;13.00;99.90
37274;DHT22;23161;51.250;5.554;2022-11-15T14:32:49;13.10;99.90
37274;DHT22;23161;51.250;5.554;2022-11-15T14:35:18;13.00;99.90
37274;DHT22;23161;51.250;5.554;2022-11-15T14:37:45;13.10;99.90
37274;DHT22;23161;51.250;5.554;2022-11-15T14:40:21;13.00;99.90
37274;DHT22;23161;51.250;5.554;2022-11-15T14:42:49;13.00;99.90
37274;DHT22;23161;51.250;5.554;2022-11-15T14:45:20;13.00;99.90
37274;DHT22;23161;51.250;5.554;2022-11-15T14:47:46;13.00;99.90
37274;DHT22;23161;51.250;5.554;2022-11-15T14:50:19;13.00;99.90
37274;DHT22;23161;51.250;5.554;2022-11-15T14:52:45;13.00;99.90
37274;DHT22;23161;51.250;5.554;2022-11-15T14:55:25;12.90;99.90
37274;DHT22;23161;51.250;5.554;2022-11-15T14:57:51;12.90;99.90
37274;DHT22;23161;51.250;5.554;2022-11-15T15:00:18;12.90;99.90
37274;DHT22;23161;51.250;5.554;2022-11-15T15:02:46;12.90;99.90
37274;DHT22;23161;51.250;5.554;2022-11-15T15:05:29;12.90;99.90
37274;DHT22;23161;51.250;5.554;2022-11-15T15:07:56;12.90;99.90
37274;DHT22;23161;51.250;5.554;2022-11-15T15:10:22;12.80;99.90
37274;DHT22;23161;51.250;5.554;2022-11-15T15:12:48;12.80;99.90
37274;DHT22;23161;51.250;5.554;2022-11-15T15:15:24;12.90;99.90
37274;DHT22;23161;51.250;5.554;2022-11-15T15:17:50;12.80;99.90
37274;DHT22;23161;51.250;5.554;2022-11-15T15:20:16;12.80;99.90
37274;DHT22;23161;51.250;5.554;2022-11-15T15:22:42;12.80;99.90
37274;DHT22;23161;51.250;5.554;2022-11-15T15:25:27;12.80;99.90
37274;DHT22;23161;51.250;5.554;2022-11-15T15:27:54;12.80;99.90
37274;DHT22;23161;51.250;5.554;2022-11-15T15:30:21;12.80;99.90
37274;DHT22;23161;51.250;5.554;2022-11-15T15:32:48;12.80;99.90
37274;DHT22;23161;51.250;5.554;2022-11-15T15:35:15;12.80;99.90
37274;DHT22;23161;51.250;5.554;2022-11-15T15:37:45;12.80;99.90
37274;DHT22;23161;51.250;5.554;2022-11-15T15:40:22;12.70;99.90
37274;DHT22;23161;51.250;5.554;2022-11-15T15:42:48;12.70;99.90
37274;DHT22;23161;51.250;5.554;2022-11-15T15:45:15;12.80;99.90
37274;DHT22;23161;51.250;5.554;2022-11-15T15:47:41;12.90;99.90
37274;DHT22;23161;51.250;5.554;2022-11-15T15:50:26;12.80;99.90
37274;DHT22;23161;51.250;5.554;2022-11-15T15:52:54;12.90;99.90
37274;DHT22;23161;51.250;5.554;2022-11-15T15:55:21;12.80;99.90
37274;DHT22;23161;51.250;5.554;2022-11-15T15:57:47;12.80;99.90
37274;DHT22;23161;51.250;5.554;2022-11-15T16:00:13;12.80;99.90
37274;DHT22;23161;51.250;5.554;2022-11-15T16:02:40;12.80;99.90
37274;DHT22;23161;51.250;5.554;2022-11-15T16:05:06;12.70;99.90
37274;DHT22;23161;51.250;5.554;2022-11-15T16:07:32;12.70;99.90
37274;DHT22;23161;51.250;5.554;2022-11-15T16:09:58;13.00;99.90
37274;DHT22;23161;51.250;5.554;2022-11-15T16:12:28;12.50;99.90
37274;DHT22;23161;51.250;5.554;2022-11-15T16:14:55;12.50;99.90
37274;DHT22;23161;51.250;5.554;2022-11-15T16:17:24;12.40;99.90
37274;DHT22;23161;51.250;5.554;2022-11-15T16:19:50;12.40;99.90
37274;DHT22;23161;51.250;5.554;2022-11-15T16:22:16;12.30;99.90
37274;DHT22;23161;51.250;5.554;2022-11-15T16:24:42;12.20;99.90
37274;DHT22;23161;51.250;5.554;2022-11-15T16:27:14;12.20;99.90
37274;DHT22;23161;51.250;5.554;2022-11-15T16:29:40;12.00;99.90
37274;DHT22;23161;51.250;5.554;2022-11-15T16:32:06;11.90;99.90
37274;DHT22;23161;51.250;5.554;2022-11-15T16:34:32;11.90;99.90
37274;DHT22;23161;51.250;5.554;2022-11-15T16:36:58;11.90;99.90
37274;DHT22;23161;51.250;5.554;2022-11-15T16:39:24;11.80;99.90
37274;DHT22;23161;51.250;5.554;2022-11-15T16:41:49;11.80;99.90
37274;DHT22;23161;51.250;5.554;2022-11-15T16:44:16;11.70;99.90
37274;DHT22;23161;51.250;5.554;2022-11-15T16:46:42;11.60;99.90
37274;DHT22;23161;51.250;5.554;2022-11-15T16:49:12;11.60;99.90
37274;DHT22;23161;51.250;5.554;2022-11-15T16:51:44;11.60;99.90
37274;DHT22;23161;51.250;5.554;2022-11-15T16:54:11;11.40;99.90
37274;DHT22;23161;51.250;5.554;2022-11-15T16:56:38;11.40;99.90
37274;DHT22;23161;51.250;5.554;2022-11-15T16:59:05;11.20;99.90
37274;DHT22;23161;51.250;5.554;2022-11-15T17:01:36;11.30;99.90
37274;DHT22;23161;51.250;5.554;2022-11-15T17:04:11;11.20;99.90
37274;DHT22;23161;51.250;5.554;2022-11-15T17:06:38;11.10;99.90
37274;DHT22;23161;51.250;5.554;2022-11-15T17:09:06;11.10;99.90
37274;DHT22;23161;51.250;5.554;2022-11-15T17:11:32;11.10;99.90
37274;DHT22;23161;51.250;5.554;2022-11-15T17:13:58;11.00;99.90
37274;DHT22;23161;51.250;5.554;2022-11-15T17:16:24;11.00;99.90
37274;DHT22;23161;51.250;5.554;2022-11-15T17:18:51;11.00;99.90
37274;DHT22;23161;51.250;5.554;2022-11-15T17:21:19;10.90;99.90
37274;DHT22;23161;51.250;5.554;2022-11-15T17:23:46;10.90;99.90
37274;DHT22;23161;51.250;5.554;2022-11-15T17:26:14;11.00;99.90
37274;DHT22;23161;51.250;5.554;2022-11-15T17:28:40;11.00;99.90
37274;DHT22;23161;51.250;5.554;2022-11-15T17:31:11;11.00;99.90
37274;DHT22;23161;51.250;5.554;2022-11-15T17:33:37;10.90;99.90
37274;DHT22;23161;51.250;5.554;2022-11-15T17:36:07;10.90;99.90
37274;DHT22;23161;51.250;5.554;2022-11-15T17:38:33;10.90;99.90
37274;DHT22;23161;51.250;5.554;2022-11-15T17:43:29;10.90;99.90
37274;DHT22;23161;51.250;5.554;2022-11-15T17:45:55;10.90;99.90
37274;DHT22;23161;51.250;5.554;2022-11-15T17:48:21;10.90;99.90
37274;DHT22;23161;51.250;5.554;2022-11-15T17:51:01;10.90;99.90
37274;DHT22;23161;51.250;5.554;2022-11-15T17:53:32;10.80;99.90
37274;DHT22;23161;51.250;5.554;2022-11-15T17:56:02;10.90;99.90
37274;DHT22;23161;51.250;5.554;2022-11-15T17:58:29;10.80;99.90
37274;DHT22;23161;51.250;5.554;2022-11-15T18:01:25;10.80;99.90
37274;DHT22;23161;51.250;5.554;2022-11-15T18:03:50;10.80;99.90
37274;DHT22;23161;51.250;5.554;2022-11-15T18:06:17;10.80;99.90
37274;DHT22;23161;51.250;5.554;2022-11-15T18:08:45;10.80;99.90
37274;DHT22;23161;51.250;5.554;2022-11-15T18:11:22;10.80;99.90
37274;DHT22;23161;51.250;5.554;2022-11-15T18:13:55;10.80;99.90
37274;DHT22;23161;51.250;5.554;2022-11-15T18:16:23;10.80;99.90
37274;DHT22;23161;51.250;5.554;2022-11-15T18:18:51;10.80;99.90
37274;DHT22;23161;51.250;5.554;2022-11-15T18:21:19;10.80;99.90
37274;DHT22;23161;51.250;5.554;2022-11-15T18:23:46;10.80;99.90
37274;DHT22;23161;51.250;5.554;2022-11-15T18:26:14;10.90;99.90
37274;DHT22;23161;51.250;5.554;2022-11-15T18:28:46;10.90;99.90
37274;DHT22;23161;51.250;5.554;2022-11-15T18:31:29;10.90;99.90
37274;DHT22;23161;51.250;5.554;2022-11-15T18:33:57;10.90;99.90
37274;DHT22;23161;51.250;5.554;2022-11-15T18:36:26;10.90;99.90
37274;DHT22;23161;51.250;5.554;2022-11-15T18:38:57;10.90;99.90